Time;durP1;ratioP1;P1;durP2;ratioP2;P2;SDS_P1;SDS_P2;PMS_P1;PMS_P2;Temp;Humidity;BMP_temperature;BMP_pressure;BME280_temperature;BME280_humidity;BME280_pressure;Samples;Min_cycle;Max_cycle;Signal;HPM_P1;HPM_P2
2024/04/19 00:00:30;;;;;;;;;;;21.40;36.70;;;;;;3050058;19;4749;-24
2024/04/19 00:01:31;;;;;;;;;;;21.40;36.80;;;;;;3030928;19;4590;-25
2024/04/19 00:02:32;;;;;;;;;;;21.40;36.80;;;;;;3052685;19;4688;-26
2024/04/19 00:03:32;;;;;;;;;;;21.40;36.80;;;;;;3053130;19;4720;-24
2024/04/19 00:04:33;;;;;;;;;;;21.40;36.80;;;;;;3030221;19;4537;-24
2024/04/19 00:05:33;;;;;;;;;;;21.50;36.90;;;;;;3052699;19;4715;-25
2024/04/19 00:06:34;;;;;;;;;;;21.40;36.80;;;;;;3031841;19;4680;-24
2024/04/19 00:07:35;;;;;;;;;;;21.40;36.90;;;;;;3053090;19;4845;-24
2024/04/19 00:08:38;;;;;;;;;;;21.40;36.90;;;;;;3051307;19;4744;-24
2024/04/19 00:09:39;;;;;;;;;;;21.40;36.90;;;;;;3029156;19;4815;-25
2024/04/19 00:10:39;;;;;;;;;;;21.40;36.80;;;;;;3052105;19;4711;-26
2024/04/19 00:11:40;;;;;;;;;;;21.40;36.90;;;;;;3030584;19;4630;-27
2024/04/19 00:12:41;;;;;;;;;;;21.40;36.90;;;;;;3052284;19;4688;-24
2024/04/19 00:13:41;;;;;;;;;;;21.40;36.90;;;;;;3052793;19;4696;-29
2024/04/19 00:14:42;;;;;;;;;;;21.40;36.90;;;;;;3031005;19;4658;-24
2024/04/19 00:15:43;;;;;;;;;;;24.40;38.60;;;;;;3052017;19;4695;-24
2024/04/19 00:16:43;;;;;;;;;;;21.40;37.00;;;;;;3053169;19;5095;-26
2024/04/19 00:17:44;;;;;;;;;;;21.40;37.00;;;;;;3030811;19;4580;-28
2024/04/19 00:18:44;;;;;;;;;;;21.40;37.00;;;;;;3052075;19;4808;-24
2024/04/19 00:19:45;;;;;;;;;;;21.40;37.00;;;;;;3031426;19;4685;-24
2024/04/19 00:20:46;;;;;;;;;;;21.40;37.00;;;;;;3052397;19;4644;-34
2024/04/19 00:21:46;;;;;;;;;;;21.30;37.00;;;;;;3052885;19;4681;-33
2024/04/19 00:22:47;;;;;;;;;;;21.30;37.00;;;;;;3030979;19;4689;-33
2024/04/19 00:23:48;;;;;;;;;;;21.30;37.10;;;;;;3053860;19;4759;-34
2024/04/19 00:24:49;;;;;;;;;;;21.30;37.00;;;;;;3056420;19;4627;-32
2024/04/19 00:25:49;;;;;;;;;;;21.30;37.00;;;;;;3032054;19;4527;-33
2024/04/19 00:26:50;;;;;;;;;;;21.30;37.10;;;;;;3055568;19;4646;-34
2024/04/19 00:27:51;;;;;;;;;;;21.30;37.20;;;;;;3033737;19;4623;-31
2024/04/19 00:28:51;;;;;;;;;;;21.40;37.20;;;;;;3056169;19;4837;-33
2024/04/19 00:29:52;;;;;;;;;;;21.30;37.00;;;;;;3054523;19;4635;-33
2024/04/19 00:30:56;;;;;;;;;;;21.30;37.20;;;;;;3032781;19;4805;-24
2024/04/19 00:31:56;;;;;;;;;;;21.30;37.20;;;;;;3055384;19;4607;-25
2024/04/19 00:32:57;;;;;;;;;;;21.30;37.10;;;;;;3041647;19;4653;-23
2024/04/19 00:33:57;;;;;;;;;;;21.30;37.20;;;;;;3053468;19;4705;-24
2024/04/19 00:34:58;;;;;;;;;;;21.30;37.10;;;;;;3053899;19;4760;-26
2024/04/19 00:35:59;;;;;;;;;;;21.30;37.30;;;;;;3032633;19;4679;-26
2024/04/19 00:36:59;;;;;;;;;;;21.30;37.20;;;;;;3054545;19;4695;-25
2024/04/19 00:38:00;;;;;;;;;;;21.20;37.20;;;;;;3054567;19;4596;-24
2024/04/19 00:39:01;;;;;;;;;;;21.30;37.30;;;;;;3033915;19;4830;-25
2024/04/19 00:40:02;;;;;;;;;;;21.30;37.30;;;;;;3055603;19;4641;-25
2024/04/19 00:41:02;;;;;;;;;;;21.20;37.20;;;;;;3033715;19;4728;-25
2024/04/19 00:42:03;;;;;;;;;;;21.20;37.20;;;;;;3054580;19;4632;-24
2024/04/19 00:43:04;;;;;;;;;;;21.20;37.30;;;;;;3053924;19;4590;-26
2024/04/19 00:44:04;;;;;;;;;;;21.20;37.30;;;;;;3032511;19;4659;-26
2024/04/19 00:45:14;;;;;;;;;;;21.20;37.30;;;;;;3055346;19;4644;-23
2024/04/19 00:46:15;;;;;;;;;;;21.20;37.20;;;;;;3053940;19;15839;-23
2024/04/19 00:47:16;;;;;;;;;;;21.20;37.30;;;;;;3033631;19;4630;-24
2024/04/19 00:48:18;;;;;;;;;;;21.30;37.40;;;;;;3054091;19;4698;-25
2024/04/19 00:49:19;;;;;;;;;;;21.50;37.50;;;;;;3033415;19;4583;-24
2024/04/19 00:50:19;;;;;;;;;;;21.20;37.30;;;;;;3053292;19;5256;-24
2024/04/19 00:51:20;;;;;;;;;;;21.20;37.30;;;;;;3055005;19;4894;-24
2024/04/19 00:52:21;;;;;;;;;;;21.20;37.30;;;;;;3032327;19;4627;-25
2024/04/19 00:53:26;;;;;;;;;;;21.20;37.40;;;;;;3055292;19;4712;-25
2024/04/19 00:54:26;;;;;;;;;;;21.20;37.40;;;;;;3047951;19;5994;-23
2024/04/19 00:55:28;;;;;;;;;;;21.20;37.30;;;;;;3055445;19;4622;-26
2024/04/19 00:56:29;;;;;;;;;;;21.20;37.40;;;;;;3055344;19;4867;-25
2024/04/19 00:57:30;;;;;;;;;;;21.20;37.40;;;;;;3032488;19;4585;-24
2024/04/19 00:58:30;;;;;;;;;;;21.20;37.40;;;;;;3055214;19;4856;-26
2024/04/19 00:59:31;;;;;;;;;;;21.20;37.40;;;;;;3054158;19;4764;-25
2024/04/19 01:00:32;;;;;;;;;;;21.20;37.50;;;;;;3032349;19;4573;-26
2024/04/19 01:01:32;;;;;;;;;;;21.20;37.50;;;;;;3054308;19;4652;-24
2024/04/19 01:02:33;;;;;;;;;;;21.20;37.50;;;;;;3032872;19;4709;-25
2024/04/19 01:03:33;;;;;;;;;;;21.10;37.40;;;;;;3054358;19;4710;-25
2024/04/19 01:04:34;;;;;;;;;;;21.20;37.40;;;;;;3054084;19;4656;-25
2024/04/19 01:05:35;;;;;;;;;;;21.10;37.50;;;;;;3033591;19;4720;-24
2024/04/19 01:06:35;;;;;;;;;;;21.10;37.50;;;;;;3054800;19;4701;-26
2024/04/19 01:07:36;;;;;;;;;;;21.10;37.50;;;;;;3051764;19;4721;-24
2024/04/19 01:08:36;;;;;;;;;;;21.10;37.50;;;;;;3044052;19;4746;-26
2024/04/19 01:09:37;;;;;;;;;;;21.10;38.10;;;;;;3054932;19;4927;-24
2024/04/19 01:10:38;;;;;;;;;;;21.10;37.50;;;;;;3032839;19;4679;-24
2024/04/19 01:11:39;;;;;;;;;;;21.10;37.50;;;;;;3054118;19;4709;-25
2024/04/19 01:12:39;;;;;;;;;;;21.10;37.50;;;;;;3055124;19;4640;-27
2024/04/19 01:13:40;;;;;;;;;;;21.10;37.50;;;;;;3031555;19;4587;-25
2024/04/19 01:14:41;;;;;;;;;;;21.10;37.60;;;;;;3054746;19;4727;-24
2024/04/19 01:15:41;;;;;;;;;;;21.10;37.60;;;;;;3032992;19;4704;-24
2024/04/19 01:16:42;;;;;;;;;;;21.10;37.60;;;;;;3053112;19;4701;-25
2024/04/19 01:17:42;;;;;;;;;;;21.10;37.70;;;;;;3054746;19;4712;-24
2024/04/19 01:18:43;;;;;;;;;;;21.10;38.00;;;;;;3032973;19;4706;-23
2024/04/19 01:19:44;;;;;;;;;;;21.10;37.60;;;;;;3052090;19;4845;-25
2024/04/19 01:20:44;;;;;;;;;;;21.10;37.60;;;;;;3054878;19;4704;-24
2024/04/19 01:21:45;;;;;;;;;;;21.10;37.60;;;;;;3030970;19;4593;-25
2024/04/19 01:22:46;;;;;;;;;;;21.10;37.70;;;;;;3054513;19;4659;-24
2024/04/19 01:23:47;;;;;;;;;;;21.10;37.70;;;;;;3032972;19;4721;-23
2024/04/19 01:24:49;;;;;;;;;;;21.10;37.60;;;;;;3053281;19;4626;-24
2024/04/19 01:25:50;;;;;;;;;;;21.10;37.70;;;;;;3053614;19;4680;-28
2024/04/19 01:26:51;;;;;;;;;;;21.10;37.70;;;;;;3032275;19;4715;-27
2024/04/19 01:27:51;;;;;;;;;;;21.10;38.30;;;;;;3054727;19;4636;-24
2024/04/19 01:28:52;;;;;;;;;;;21.10;37.70;;;;;;3054315;19;4670;-25
2024/04/19 01:29:53;;;;;;;;;;;21.10;37.60;;;;;;3032164;19;4599;-25
2024/04/19 01:30:53;;;;;;;;;;;21.10;37.70;;;;;;3053357;19;4675;-24
2024/04/19 01:31:54;;;;;;;;;;;21.00;37.60;;;;;;3032383;19;4730;-23
2024/04/19 01:32:54;;;;;;;;;;;21.00;37.70;;;;;;3053346;19;4633;-24
2024/04/19 01:33:55;;;;;;;;;;;21.00;37.70;;;;;;3052967;19;4654;-24
2024/04/19 01:34:56;;;;;;;;;;;21.00;37.80;;;;;;3030513;19;4685;-25
2024/04/19 01:35:56;;;;;;;;;;;21.00;37.70;;;;;;3053719;19;4738;-25
2024/04/19 01:36:57;;;;;;;;;;;21.00;38.40;;;;;;3040603;19;4701;-24
2024/04/19 01:37:58;;;;;;;;;;;21.00;37.70;;;;;;3053523;19;4709;-26
2024/04/19 01:38:58;;;;;;;;;;;21.00;37.70;;;;;;3052399;19;4651;-26
2024/04/19 01:39:59;;;;;;;;;;;21.00;37.80;;;;;;3030661;19;4644;-24
2024/04/19 01:40:59;;;;;;;;;;;21.00;37.80;;;;;;3053500;19;4721;-24
2024/04/19 01:42:00;;;;;;;;;;;21.00;37.70;;;;;;3054879;19;4604;-26
2024/04/19 01:43:01;;;;;;;;;;;21.00;37.70;;;;;;3031938;19;4670;-24
2024/04/19 01:44:01;;;;;;;;;;;21.00;37.80;;;;;;3052991;19;4692;-24
2024/04/19 01:45:02;;;;;;;;;;;21.00;37.80;;;;;;3031735;19;4841;-25
2024/04/19 01:46:03;;;;;;;;;;;21.00;37.80;;;;;;3053500;19;4728;-26
2024/04/19 01:47:05;;;;;;;;;;;21.00;37.80;;;;;;3054391;19;4594;-25
2024/04/19 01:48:06;;;;;;;;;;;21.00;37.80;;;;;;3032074;19;4625;-24
2024/04/19 01:49:07;;;;;;;;;;;21.00;37.90;;;;;;3054146;19;4632;-24
2024/04/19 01:50:09;;;;;;;;;;;22.70;38.80;;;;;;3054261;19;4665;-25
2024/04/19 01:51:10;;;;;;;;;;;21.00;37.90;;;;;;3032658;19;4566;-24
2024/04/19 01:52:12;;;;;;;;;;;21.00;37.90;;;;;;3053591;19;4669;-26
2024/04/19 01:53:13;;;;;;;;;;;21.00;37.80;;;;;;3032026;19;4312;-25
2024/04/19 01:54:16;;;;;;;;;;;21.00;37.90;;;;;;3052866;19;4690;-26
2024/04/19 01:55:17;;;;;;;;;;;21.00;37.80;;;;;;3054103;19;4670;-25
2024/04/19 01:56:18;;;;;;;;;;;21.00;37.90;;;;;;3031367;19;4774;-24
2024/04/19 01:57:18;;;;;;;;;;;21.00;37.80;;;;;;3054204;19;4714;-25
2024/04/19 01:58:19;;;;;;;;;;;21.00;37.90;;;;;;3031465;19;4734;-25
2024/04/19 01:59:19;;;;;;;;;;;20.90;38.50;;;;;;3053788;19;4698;-24
2024/04/19 02:00:20;;;;;;;;;;;21.00;37.80;;;;;;3054038;19;4662;-26
2024/04/19 02:01:21;;;;;;;;;;;20.90;37.90;;;;;;3029992;19;4742;-25
2024/04/19 02:02:22;;;;;;;;;;;20.90;37.90;;;;;;3054110;19;4737;-25
2024/04/19 02:03:23;;;;;;;;;;;21.00;37.90;;;;;;3053504;19;4695;-24
2024/04/19 02:04:23;;;;;;;;;;;20.90;37.80;;;;;;3031321;19;4566;-24
2024/04/19 02:05:24;;;;;;;;;;;20.90;37.80;;;;;;3054231;19;4735;-25
2024/04/19 02:06:25;;;;;;;;;;;20.90;37.80;;;;;;3032881;19;4693;-25
2024/04/19 02:07:25;;;;;;;;;;;20.90;37.90;;;;;;3053712;19;4656;-25
2024/04/19 02:08:26;;;;;;;;;;;20.90;37.90;;;;;;3053748;19;4775;-24
2024/04/19 02:09:27;;;;;;;;;;;20.90;37.90;;;;;;3031720;19;4619;-24
2024/04/19 02:10:27;;;;;;;;;;;20.90;37.90;;;;;;3054510;19;4628;-28
2024/04/19 02:11:28;;;;;;;;;;;20.90;37.90;;;;;;3055018;19;4851;-24
2024/04/19 02:12:29;;;;;;;;;;;20.90;37.80;;;;;;3032663;19;4528;-25
2024/04/19 02:13:29;;;;;;;;;;;20.90;37.90;;;;;;3052229;19;4658;-24
2024/04/19 02:14:30;;;;;;;;;;;21.00;37.90;;;;;;3032435;19;4659;-27
2024/04/19 02:15:31;;;;;;;;;;;21.00;37.90;;;;;;3052940;19;4681;-24
2024/04/19 02:16:31;;;;;;;;;;;20.90;37.80;;;;;;3054387;19;4629;-26
2024/04/19 02:17:32;;;;;;;;;;;21.00;37.90;;;;;;3032482;19;4773;-26
2024/04/19 02:18:32;;;;;;;;;;;20.90;37.80;;;;;;3053907;19;4831;-25
2024/04/19 02:19:36;;;;;;;;;;;20.90;37.80;;;;;;3052890;19;4749;-24
2024/04/19 02:20:36;;;;;;;;;;;20.90;37.90;;;;;;3031708;19;4594;-25
2024/04/19 02:21:37;;;;;;;;;;;20.90;38.00;;;;;;3053801;19;4663;-26
2024/04/19 02:22:38;;;;;;;;;;;20.90;38.00;;;;;;3032100;19;4691;-25
2024/04/19 02:23:38;;;;;;;;;;;20.90;37.90;;;;;;3051235;19;4744;-24
2024/04/19 02:24:39;;;;;;;;;;;20.90;37.90;;;;;;3053497;19;4638;-25
2024/04/19 02:25:40;;;;;;;;;;;20.90;38.00;;;;;;3033189;19;4476;-27
2024/04/19 02:26:40;;;;;;;;;;;20.90;38.00;;;;;;3052779;19;4682;-23
2024/04/19 02:31:38;;;;;;;;;;;20.90;38.10;;;;;;3053918;19;4671;-24
2024/04/19 02:32:39;;;;;;;;;;;20.90;38.10;;;;;;3054158;19;4714;-24
2024/04/19 02:33:40;;;;;;;;;;;20.90;38.00;;;;;;3031418;19;4599;-26
2024/04/19 02:34:43;;;;;;;;;;;20.90;38.20;;;;;;3053229;19;4645;-24
2024/04/19 02:35:43;;;;;;;;;;;21.00;38.20;;;;;;3031199;19;4749;-26
2024/04/19 02:36:44;;;;;;;;;;;21.00;38.20;;;;;;3053426;19;4697;-25
2024/04/19 02:37:47;;;;;;;;;;;21.00;38.20;;;;;;3051247;19;4661;-24
2024/04/19 02:38:47;;;;;;;;;;;21.00;38.20;;;;;;3029164;19;4726;-25
2024/04/19 02:39:48;;;;;;;;;;;21.10;38.20;;;;;;3053689;19;4684;-24
2024/04/19 02:40:49;;;;;;;;;;;21.10;38.10;;;;;;3053077;19;4683;-24
2024/04/19 02:41:50;;;;;;;;;;;21.20;38.10;;;;;;3031310;19;4534;-26
2024/04/19 02:42:50;;;;;;;;;;;21.20;38.00;;;;;;3052889;19;4647;-26
2024/04/19 02:43:51;;;;;;;;;;;21.30;38.00;;;;;;3030698;19;4772;-24
2024/04/19 02:44:52;;;;;;;;;;;21.30;38.00;;;;;;3053333;19;4690;-24
2024/04/19 02:45:52;;;;;;;;;;;22.00;38.30;;;;;;3052950;19;4756;-25
2024/04/19 02:46:53;;;;;;;;;;;21.20;37.90;;;;;;3029427;19;4631;-25
2024/04/19 02:47:54;;;;;;;;;;;21.30;37.90;;;;;;3052872;19;4856;-25
2024/04/19 02:48:54;;;;;;;;;;;21.30;37.70;;;;;;3053232;19;4635;-25
2024/04/19 02:49:55;;;;;;;;;;;21.30;37.80;;;;;;3031213;19;4555;-26
2024/04/19 02:50:56;;;;;;;;;;;21.30;37.80;;;;;;3053049;19;4732;-34
2024/04/19 02:51:56;;;;;;;;;;;21.30;37.80;;;;;;3032242;19;4630;-32
2024/04/19 02:52:57;;;;;;;;;;;21.30;37.80;;;;;;3052478;19;4620;-34
2024/04/19 02:53:57;;;;;;;;;;;21.30;37.80;;;;;;3053265;19;4678;-34
2024/04/19 02:54:58;;;;;;;;;;;21.30;37.60;;;;;;3030699;19;4600;-33
2024/04/19 02:55:59;;;;;;;;;;;21.40;37.60;;;;;;3051806;19;4612;-34
2024/04/19 02:57:00;;;;;;;;;;;21.40;37.60;;;;;;3030263;19;4745;-33
2024/04/19 02:58:01;;;;;;;;;;;21.50;37.60;;;;;;3052117;19;4657;-32
2024/04/19 02:59:01;;;;;;;;;;;21.40;37.50;;;;;;3052010;19;4627;-31
2024/04/19 03:00:03;;;;;;;;;;;21.50;37.60;;;;;;3031436;19;4669;-30
2024/04/19 03:01:04;;;;;;;;;;;21.40;37.60;;;;;;3052715;19;4654;-34
2024/04/19 03:02:04;;;;;;;;;;;21.40;37.50;;;;;;3052406;19;4599;-31
2024/04/19 03:03:05;;;;;;;;;;;21.50;37.60;;;;;;3031197;19;4781;-30
2024/04/19 03:04:05;;;;;;;;;;;21.40;37.50;;;;;;3052302;19;4674;-32
2024/04/19 03:05:06;;;;;;;;;;;21.50;37.50;;;;;;3028798;19;4587;-33
2024/04/19 03:06:07;;;;;;;;;;;21.50;37.60;;;;;;3052067;19;4661;-34
2024/04/19 03:07:07;;;;;;;;;;;21.50;37.60;;;;;;3051374;19;4723;-34
2024/04/19 03:08:08;;;;;;;;;;;21.50;37.50;;;;;;3028787;19;4573;-32
2024/04/19 03:09:09;;;;;;;;;;;21.50;37.50;;;;;;3051518;19;4687;-32
2024/04/19 03:10:09;;;;;;;;;;;21.60;37.50;;;;;;3051778;19;4689;-32
2024/04/19 03:11:10;;;;;;;;;;;21.60;37.40;;;;;;3031848;19;4079;-34
2024/04/19 03:12:11;;;;;;;;;;;21.60;37.40;;;;;;3052374;19;4705;-33
2024/04/19 03:13:11;;;;;;;;;;;21.60;37.40;;;;;;3031066;19;4556;-34
2024/04/19 03:14:12;;;;;;;;;;;21.60;37.30;;;;;;3052637;19;4695;-34
2024/04/19 03:15:12;;;;;;;;;;;21.60;37.30;;;;;;3050928;19;4766;-31
2024/04/19 03:16:13;;;;;;;;;;;21.70;37.20;;;;;;3031699;19;4586;-31
2024/04/19 03:17:14;;;;;;;;;;;21.70;37.30;;;;;;3050658;19;4682;-35
2024/04/19 03:18:14;;;;;;;;;;;21.70;37.20;;;;;;3052219;19;4733;-35
2024/04/19 03:19:15;;;;;;;;;;;21.70;37.30;;;;;;3032293;19;4426;-33
2024/04/19 03:20:15;;;;;;;;;;;21.60;38.00;;;;;;3051996;19;4645;-33
2024/04/19 03:21:16;;;;;;;;;;;21.70;37.40;;;;;;3029056;19;4755;-31
2024/04/19 03:22:18;;;;;;;;;;;21.60;37.40;;;;;;3052636;19;4678;-33
2024/04/19 03:23:18;;;;;;;;;;;21.60;37.50;;;;;;3052517;19;4674;-32
2024/04/19 03:24:19;;;;;;;;;;;21.60;37.40;;;;;;3031274;19;4704;-33
2024/04/19 03:25:20;;;;;;;;;;;21.60;37.50;;;;;;3051571;19;4637;-32
2024/04/19 03:26:20;;;;;;;;;;;21.60;37.40;;;;;;3032366;19;4760;-34
2024/04/19 03:27:21;;;;;;;;;;;21.60;37.50;;;;;;3052835;19;4726;-33
2024/04/19 03:28:22;;;;;;;;;;;21.60;37.50;;;;;;3052356;19;4736;-30
2024/04/19 03:29:22;;;;;;;;;;;21.60;37.50;;;;;;3030983;19;4767;-35
2024/04/19 03:30:26;;;;;;;;;;;21.60;37.30;;;;;;3051806;19;4640;-31
2024/04/19 03:31:27;;;;;;;;;;;21.60;37.40;;;;;;3051157;19;4804;-32
2024/04/19 03:32:27;;;;;;;;;;;21.60;37.50;;;;;;3030160;19;4640;-31
2024/04/19 03:33:28;;;;;;;;;;;21.60;37.50;;;;;;3052736;19;4857;-35
2024/04/19 03:34:29;;;;;;;;;;;21.60;37.40;;;;;;3030258;19;4669;-33
2024/04/19 03:35:29;;;;;;;;;;;21.70;37.40;;;;;;3052843;19;4748;-34
2024/04/19 03:36:30;;;;;;;;;;;21.70;37.40;;;;;;3053008;19;4721;-36
2024/04/19 03:37:30;;;;;;;;;;;21.70;37.30;;;;;;3030360;19;4567;-34
2024/04/19 03:38:31;;;;;;;;;;;21.80;38.00;;;;;;3052928;19;4682;-32
2024/04/19 03:39:32;;;;;;;;;;;21.80;37.20;;;;;;3052901;19;4859;-33
2024/04/19 03:40:32;;;;;;;;;;;21.80;37.10;;;;;;3031235;19;4580;-32
2024/04/19 03:41:33;;;;;;;;;;;21.80;37.00;;;;;;3052263;19;4791;-32
2024/04/19 03:42:44;;;;;;;;;;;21.90;37.00;;;;;;3030616;19;4686;-30
2024/04/19 03:45:40;;;;;;;;;;;21.90;36.90;;;;;;3052530;19;4859;-32
2024/04/19 03:46:25;;;;;;;;;;;21.90;36.90;;;;;;3052556;19;4684;-32
2024/04/19 03:47:26;;;;;;;;;;;21.90;37.40;;;;;;3052076;19;4702;-33
2024/04/19 03:48:26;;;;;;;;;;;22.00;36.90;;;;;;3031667;19;4580;-35
2024/04/19 03:49:27;;;;;;;;;;;21.90;36.80;;;;;;3050220;19;4672;-32
2024/04/19 03:50:28;;;;;;;;;;;21.90;36.80;;;;;;3031486;19;4727;-26
2024/04/19 03:51:28;;;;;;;;;;;21.90;36.80;;;;;;3052722;19;4643;-24
2024/04/19 03:52:29;;;;;;;;;;;21.90;36.80;;;;;;3051233;19;4691;-26
2024/04/19 03:53:30;;;;;;;;;;;21.90;36.90;;;;;;3031267;19;4708;-24
2024/04/19 03:54:30;;;;;;;;;;;21.90;36.90;;;;;;3052496;19;4674;-25
2024/04/19 03:55:31;;;;;;;;;;;21.80;36.90;;;;;;3053266;19;4765;-24
2024/04/19 03:56:32;;;;;;;;;;;21.80;36.90;;;;;;3031343;19;4616;-25
2024/04/19 03:57:32;;;;;;;;;;;21.80;37.60;;;;;;3050423;19;4716;-28
2024/04/19 03:58:33;;;;;;;;;;;21.80;36.90;;;;;;3028012;19;4730;-25
2024/04/19 03:59:34;;;;;;;;;;;21.80;37.00;;;;;;3051860;19;4700;-25
2024/04/19 04:00:39;;;;;;;;;;;21.80;37.00;;;;;;3051745;19;4834;-25
2024/04/19 04:01:39;;;;;;;;;;;21.80;37.00;;;;;;3030567;19;4599;-25
2024/04/19 04:02:40;;;;;;;;;;;21.70;37.00;;;;;;3050671;19;4680;-25
2024/04/19 04:03:41;;;;;;;;;;;21.70;37.00;;;;;;3031897;19;4712;-25
2024/04/19 04:04:41;;;;;;;;;;;21.70;37.10;;;;;;3052241;19;4690;-23
2024/04/19 04:05:48;;;;;;;;;;;21.70;37.10;;;;;;3052451;19;4701;-29
2024/04/19 04:06:49;;;;;;;;;;;21.70;37.10;;;;;;3030725;19;4662;-26
2024/04/19 04:07:50;;;;;;;;;;;21.70;37.10;;;;;;3051326;19;4634;-27
2024/04/19 04:08:50;;;;;;;;;;;21.70;37.20;;;;;;3052807;19;4716;-24
2024/04/19 04:09:52;;;;;;;;;;;21.70;37.30;;;;;;3030886;19;4622;-26
2024/04/19 04:10:52;;;;;;;;;;;21.70;37.20;;;;;;3052982;19;4642;-24
2024/04/19 04:11:53;;;;;;;;;;;21.80;37.30;;;;;;3031632;19;4665;-25
2024/04/19 04:12:56;;;;;;;;;;;21.80;37.20;;;;;;3051801;19;4660;-25
2024/04/19 04:13:56;;;;;;;;;;;21.80;37.20;;;;;;3052547;19;4653;-28
2024/04/19 04:14:57;;;;;;;;;;;21.80;37.00;;;;;;3029148;19;4679;-26
2024/04/19 04:15:58;;;;;;;;;;;21.80;37.00;;;;;;3052458;19;4694;-25
2024/04/19 04:16:58;;;;;;;;;;;21.90;36.90;;;;;;3030959;19;4765;-26
2024/04/19 04:18:01;;;;;;;;;;;21.90;36.90;;;;;;3052607;19;4715;-25
2024/04/19 04:19:07;;;;;;;;;;;21.90;36.80;;;;;;3052904;19;4663;-25
2024/04/19 04:20:07;;;;;;;;;;;21.90;36.80;;;;;;3030498;19;4641;-26
2024/04/19 04:21:08;;;;;;;;;;;22.00;36.80;;;;;;3050341;19;4718;-24
2024/04/19 04:22:09;;;;;;;;;;;22.00;36.80;;;;;;3052942;19;4713;-24
2024/04/19 04:23:09;;;;;;;;;;;22.00;36.70;;;;;;3030223;19;4688;-24
2024/04/19 04:24:10;;;;;;;;;;;22.00;36.70;;;;;;3052051;19;4899;-24
2024/04/19 04:25:10;;;;;;;;;;;22.00;36.80;;;;;;3030468;19;4788;-28
2024/04/19 04:26:11;;;;;;;;;;;22.00;36.70;;;;;;3052037;19;4651;-26
2024/04/19 04:27:12;;;;;;;;;;;23.40;37.50;;;;;;3051805;19;4787;-24
2024/04/19 04:28:12;;;;;;;;;;;22.00;36.70;;;;;;3030492;19;4642;-26
2024/04/19 04:29:13;;;;;;;;;;;22.00;36.70;;;;;;3052328;19;4661;-25
2024/04/19 04:30:13;;;;;;;;;;;22.00;36.70;;;;;;3051509;19;4637;-26
2024/04/19 04:31:14;;;;;;;;;;;21.90;36.80;;;;;;3029435;19;4717;-24
2024/04/19 04:32:15;;;;;;;;;;;21.90;37.20;;;;;;3051143;19;4630;-24
2024/04/19 04:33:16;;;;;;;;;;;21.90;36.70;;;;;;3030739;19;4702;-23
2024/04/19 04:34:16;;;;;;;;;;;21.90;36.70;;;;;;3051740;19;4739;-24
2024/04/19 04:35:17;;;;;;;;;;;21.90;36.90;;;;;;3051075;19;4780;-24
2024/04/19 04:36:18;;;;;;;;;;;21.80;36.80;;;;;;3031202;19;4561;-25
2024/04/19 04:37:18;;;;;;;;;;;21.80;36.80;;;;;;3050362;19;4659;-24
2024/04/19 04:38:19;;;;;;;;;;;21.80;36.80;;;;;;3030034;19;4641;-25
2024/04/19 04:39:20;;;;;;;;;;;21.80;36.80;;;;;;3052173;19;4644;-25
2024/04/19 04:40:20;;;;;;;;;;;21.80;36.80;;;;;;3050991;19;4742;-26
2024/04/19 04:41:21;;;;;;;;;;;21.80;36.80;;;;;;3030021;19;4618;-25
2024/04/19 04:42:21;;;;;;;;;;;21.80;36.80;;;;;;3049555;19;4700;-26
2024/04/19 04:43:22;;;;;;;;;;;21.70;36.80;;;;;;3050168;19;4691;-24
2024/04/19 04:44:24;;;;;;;;;;;21.70;36.80;;;;;;3028648;19;4632;-24
2024/04/19 04:45:24;;;;;;;;;;;21.70;36.90;;;;;;3052675;19;4868;-24
2024/04/19 04:46:25;;;;;;;;;;;21.70;36.90;;;;;;3030457;19;4869;-25
2024/04/19 04:47:25;;;;;;;;;;;21.70;36.90;;;;;;3051921;19;4830;-25
2024/04/19 04:48:26;;;;;;;;;;;21.70;36.90;;;;;;3049637;19;4809;-24
2024/04/19 04:49:27;;;;;;;;;;;21.70;37.00;;;;;;3030394;19;4575;-25
2024/04/19 04:50:28;;;;;;;;;;;21.70;37.60;;;;;;3050992;19;4796;-24
2024/04/19 04:51:28;;;;;;;;;;;21.60;37.00;;;;;;3051176;19;4727;-24
2024/04/19 04:52:29;;;;;;;;;;;21.60;37.00;;;;;;3029554;19;4601;-24
2024/04/19 04:53:30;;;;;;;;;;;21.60;37.10;;;;;;3050116;19;4690;-26
2024/04/19 04:54:30;;;;;;;;;;;21.60;37.00;;;;;;3029088;19;4717;-24
2024/04/19 04:55:31;;;;;;;;;;;21.60;37.10;;;;;;3050181;19;4858;-25
2024/04/19 04:56:32;;;;;;;;;;;21.60;37.10;;;;;;3050520;19;4724;-26
2024/04/19 04:57:32;;;;;;;;;;;21.60;37.10;;;;;;3029917;19;4477;-24
2024/04/19 04:58:33;;;;;;;;;;;21.20;37.00;;;;;;3049670;19;4731;-25
2024/04/19 04:59:34;;;;;;;;;;;21.60;37.10;;;;;;3049940;19;4707;-25
2024/04/19 05:00:36;;;;;;;;;;;21.70;37.10;;;;;;3026895;19;4781;-24
2024/04/19 05:01:37;;;;;;;;;;;21.70;37.00;;;;;;3051536;19;4666;-27
2024/04/19 05:02:38;;;;;;;;;;;21.80;37.00;;;;;;3029352;19;4726;-24
2024/04/19 05:03:38;;;;;;;;;;;21.70;36.90;;;;;;3051219;19;4705;-24
2024/04/19 05:04:42;;;;;;;;;;;21.80;36.80;;;;;;3050247;19;4774;-24
2024/04/19 05:05:42;;;;;;;;;;;21.80;36.80;;;;;;3027710;19;4599;-23
2024/04/19 05:06:43;;;;;;;;;;;21.80;36.80;;;;;;3049844;19;4746;-25
2024/04/19 05:07:45;;;;;;;;;;;21.80;36.80;;;;;;3029581;19;4647;-25
2024/04/19 05:08:46;;;;;;;;;;;21.80;36.80;;;;;;3052009;19;4709;-24
2024/04/19 05:09:46;;;;;;;;;;;21.80;36.70;;;;;;3052528;19;4866;-26
2024/04/19 05:10:47;;;;;;;;;;;21.80;36.80;;;;;;3029496;19;4848;-25
2024/04/19 05:11:47;;;;;;;;;;;21.80;36.70;;;;;;3052625;19;4743;-27
2024/04/19 05:12:48;;;;;;;;;;;21.80;36.60;;;;;;3052633;19;4881;-24
2024/04/19 05:13:49;;;;;;;;;;;21.90;36.50;;;;;;3030530;19;4577;-24
2024/04/19 05:14:49;;;;;;;;;;;21.80;36.50;;;;;;3050469;19;4748;-24
2024/04/19 05:15:51;;;;;;;;;;;21.80;36.60;;;;;;3031424;19;4714;-24
2024/04/19 05:16:52;;;;;;;;;;;21.80;36.50;;;;;;3051081;19;4747;-24
2024/04/19 05:17:53;;;;;;;;;;;21.80;36.40;;;;;;3053299;19;4777;-24
2024/04/19 05:18:55;;;;;;;;;;;21.80;36.40;;;;;;3032226;19;4628;-24
2024/04/19 05:19:56;;;;;;;;;;;21.80;36.40;;;;;;3053587;19;4631;-25
2024/04/19 05:20:56;;;;;;;;;;;21.80;36.60;;;;;;3045173;19;4660;-28
2024/04/19 05:21:57;;;;;;;;;;;21.80;36.40;;;;;;3044757;19;4659;-24
2024/04/19 05:22:57;;;;;;;;;;;21.80;37.20;;;;;;3051966;19;4696;-24
2024/04/19 05:23:58;;;;;;;;;;;21.80;36.40;;;;;;3032833;19;4644;-26
2024/04/19 05:24:59;;;;;;;;;;;21.80;36.50;;;;;;3052315;19;4780;-25
2024/04/19 05:26:02;;;;;;;;;;;21.80;36.50;;;;;;3051791;19;4682;-26
2024/04/19 05:27:03;;;;;;;;;;;21.80;36.30;;;;;;3030674;19;4602;-29
2024/04/19 05:28:04;;;;;;;;;;;21.80;36.40;;;;;;3050861;19;4695;-26
2024/04/19 05:29:05;;;;;;;;;;;21.80;36.50;;;;;;3029744;19;4771;-23
2024/04/19 05:30:06;;;;;;;;;;;21.80;36.40;;;;;;3051914;19;4599;-24
2024/04/19 05:31:07;;;;;;;;;;;21.80;36.50;;;;;;3052007;19;4697;-26
2024/04/19 05:32:07;;;;;;;;;;;21.80;36.50;;;;;;3030635;19;4728;-25
2024/04/19 05:33:08;;;;;;;;;;;21.80;36.50;;;;;;3052655;19;4877;-25
2024/04/19 05:34:09;;;;;;;;;;;21.80;37.10;;;;;;3053792;19;4953;-24
2024/04/19 05:35:09;;;;;;;;;;;21.80;36.50;;;;;;3031841;19;4680;-24
2024/04/19 05:36:10;;;;;;;;;;;21.80;36.30;;;;;;3054425;19;1403;-26
2024/04/19 05:37:10;;;;;;;;;;;21.90;36.20;;;;;;3031554;19;5118;-27
2024/04/19 05:38:11;;;;;;;;;;;21.90;36.10;;;;;;3051327;19;4687;-23
2024/04/19 05:39:12;;;;;;;;;;;22.00;36.10;;;;;;3054342;19;4692;-25
2024/04/19 05:40:12;;;;;;;;;;;21.90;36.10;;;;;;3031119;19;4655;-25
2024/04/19 05:41:13;;;;;;;;;;;22.00;36.10;;;;;;3052658;19;4754;-24
2024/04/19 05:42:14;;;;;;;;;;;22.00;36.10;;;;;;3052831;19;4873;-26
2024/04/19 05:43:15;;;;;;;;;;;22.00;36.10;;;;;;3031028;19;4641;-24
2024/04/19 05:44:18;;;;;;;;;;;22.00;36.20;;;;;;3054064;19;1865;-24
2024/04/19 05:45:20;;;;;;;;;;;22.00;36.00;;;;;;3030728;19;4788;-25
2024/04/19 05:46:20;;;;;;;;;;;22.00;36.10;;;;;;3052372;19;4712;-25
2024/04/19 05:47:21;;;;;;;;;;;22.00;36.10;;;;;;3052877;19;4691;-26
2024/04/19 05:48:22;;;;;;;;;;;21.40;35.80;;;;;;3031018;19;4633;-25
2024/04/19 05:49:23;;;;;;;;;;;21.90;36.10;;;;;;3052089;19;4709;-25
2024/04/19 05:50:23;;;;;;;;;;;21.90;36.20;;;;;;3030366;19;4680;-24
2024/04/19 05:51:24;;;;;;;;;;;21.90;36.10;;;;;;3052057;19;4651;-24
2024/04/19 05:52:24;;;;;;;;;;;21.90;36.20;;;;;;3054818;19;4690;-24
2024/04/19 05:53:25;;;;;;;;;;;21.90;36.20;;;;;;3029668;19;4574;-23
2024/04/19 05:54:26;;;;;;;;;;;21.90;36.20;;;;;;3052210;19;4667;-27
2024/04/19 05:55:26;;;;;;;;;;;21.80;36.30;;;;;;3051819;19;4699;-24
2024/04/19 05:56:28;;;;;;;;;;;21.80;36.30;;;;;;3029053;19;4733;-25
2024/04/19 05:57:29;;;;;;;;;;;21.80;36.30;;;;;;3053315;19;4724;-24
2024/04/19 05:58:29;;;;;;;;;;;21.80;36.30;;;;;;3031283;19;4764;-24
2024/04/19 05:59:30;;;;;;;;;;;21.80;36.30;;;;;;3053291;19;4707;-24
2024/04/19 06:00:31;;;;;;;;;;;21.80;36.50;;;;;;3051577;19;4716;-26
2024/04/19 06:01:31;;;;;;;;;;;21.80;36.30;;;;;;3030892;19;4645;-26
2024/04/19 06:02:32;;;;;;;;;;;21.80;36.40;;;;;;3052667;19;4671;-24
2024/04/19 06:03:33;;;;;;;;;;;21.70;37.10;;;;;;3051654;19;4776;-25
2024/04/19 06:04:33;;;;;;;;;;;21.70;36.40;;;;;;3030641;19;4651;-25
2024/04/19 06:05:34;;;;;;;;;;;21.70;36.50;;;;;;3051924;19;4917;-24